createdAt,value
2018-07-15T00:00:32.576Z,22.90
2018-07-15T00:03:00.646Z,23.00
2018-07-15T00:05:28.704Z,23.00
2018-07-15T00:07:56.764Z,22.90
2018-07-15T00:10:24.848Z,22.90
2018-07-15T00:12:52.912Z,22.90
2018-07-15T00:15:20.981Z,22.80
2018-07-15T00:17:49.129Z,22.80
2018-07-15T00:20:17.193Z,22.80
2018-07-15T00:22:45.416Z,22.80
2018-07-15T00:25:13.476Z,22.80
2018-07-15T00:27:41.553Z,22.80
2018-07-15T00:30:09.616Z,22.80
2018-07-15T00:32:37.684Z,22.70
2018-07-15T00:35:05.744Z,22.70
2018-07-15T00:37:33.817Z,22.70
2018-07-15T00:40:01.889Z,22.60
2018-07-15T00:42:29.954Z,22.60
2018-07-15T00:44:58.021Z,22.60
2018-07-15T00:47:26.076Z,22.50
2018-07-15T00:49:54.145Z,22.50
2018-07-15T00:52:22.241Z,22.40
2018-07-15T00:54:50.308Z,22.40
2018-07-15T00:57:18.377Z,22.30
2018-07-15T00:59:46.438Z,22.30
2018-07-15T01:02:14.500Z,22.30
2018-07-15T01:04:42.572Z,22.20
2018-07-15T01:07:10.651Z,22.10
2018-07-15T01:09:38.705Z,22.10
2018-07-15T01:12:06.772Z,22.10
2018-07-15T01:14:34.823Z,22.00
2018-07-15T01:17:02.888Z,22.00
2018-07-15T01:19:30.924Z,21.90
2018-07-15T01:21:58.978Z,21.90
2018-07-15T01:24:27.015Z,21.90
2018-07-15T01:26:55.112Z,21.90
2018-07-15T01:29:23.139Z,21.90
2018-07-15T01:31:51.192Z,21.80
2018-07-15T01:34:19.220Z,21.80
2018-07-15T01:36:47.265Z,21.70
2018-07-15T01:39:15.332Z,21.70
2018-07-15T01:41:43.379Z,21.70
2018-07-15T01:44:11.421Z,21.70
2018-07-15T01:46:39.600Z,21.60
2018-07-15T01:49:07.648Z,21.50
2018-07-15T01:51:35.684Z,21.50
2018-07-15T01:54:03.740Z,21.40
2018-07-15T01:56:31.779Z,21.40
2018-07-15T01:58:59.826Z,21.40
2018-07-15T02:01:27.860Z,21.40
2018-07-15T02:03:55.905Z,21.40
2018-07-15T02:06:23.932Z,21.40
2018-07-15T02:08:51.989Z,21.40
2018-07-15T02:11:20.038Z,21.30
2018-07-15T02:13:48.085Z,21.30
2018-07-15T02:16:16.153Z,21.20
2018-07-15T02:18:44.217Z,21.20
2018-07-15T02:21:12.288Z,21.20
2018-07-15T02:23:40.364Z,21.20
2018-07-15T02:26:08.426Z,21.20
2018-07-15T02:28:36.492Z,21.20
2018-07-15T02:31:04.540Z,21.10
2018-07-15T02:33:32.614Z,21.20
2018-07-15T02:36:00.668Z,21.10
2018-07-15T02:38:28.733Z,21.10
2018-07-15T02:40:56.793Z,21.10
2018-07-15T02:43:25.149Z,21.10
2018-07-15T02:45:53.212Z,21.00
2018-07-15T02:48:21.284Z,21.00
2018-07-15T02:50:49.337Z,21.00
2018-07-15T02:53:17.405Z,21.00
2018-07-15T02:55:45.569Z,20.90
2018-07-15T02:58:13.633Z,20.90
2018-07-15T03:00:41.685Z,20.90
2018-07-15T03:03:09.752Z,20.80
2018-07-15T03:05:37.816Z,20.80
2018-07-15T03:08:05.882Z,20.80
2018-07-15T03:10:33.941Z,20.70
2018-07-15T03:13:01.985Z,20.70
2018-07-15T03:15:30.057Z,20.70
2018-07-15T03:17:58.125Z,20.60
2018-07-15T03:20:26.177Z,20.60
2018-07-15T03:22:54.253Z,20.50
2018-07-15T03:25:22.476Z,20.50
2018-07-15T03:27:50.553Z,20.40
2018-07-15T03:30:18.611Z,20.30
2018-07-15T03:32:46.835Z,20.20
2018-07-15T03:35:14.940Z,20.10
2018-07-15T03:37:43.005Z,20.00
2018-07-15T03:40:11.080Z,20.00
2018-07-15T03:42:39.148Z,19.90
2018-07-15T03:45:07.224Z,19.80
2018-07-15T03:47:35.280Z,19.80
2018-07-15T03:50:03.357Z,19.70
2018-07-15T03:52:31.421Z,19.70
2018-07-15T03:54:59.508Z,19.70
2018-07-15T03:57:27.608Z,19.60
2018-07-15T03:59:55.668Z,19.60
2018-07-15T04:02:23.735Z,19.50
2018-07-15T04:04:51.797Z,19.50
2018-07-15T04:07:19.849Z,19.50
2018-07-15T04:09:47.916Z,19.50
2018-07-15T04:12:15.977Z,19.50
2018-07-15T04:14:44.105Z,19.50
2018-07-15T04:17:12.108Z,19.50
2018-07-15T04:19:40.180Z,19.50
2018-07-15T04:22:08.232Z,19.50
2018-07-15T04:24:36.308Z,19.50
2018-07-15T04:27:04.500Z,19.50
2018-07-15T04:29:32.573Z,19.50
2018-07-15T04:32:00.628Z,19.50
2018-07-15T04:34:28.700Z,19.50
2018-07-15T04:36:56.760Z,19.50
2018-07-15T04:39:24.824Z,19.50
2018-07-15T04:41:52.885Z,19.50
2018-07-15T04:44:20.944Z,19.60
2018-07-15T04:46:49.000Z,19.70
2018-07-15T04:49:17.070Z,19.80
2018-07-15T04:51:45.195Z,19.80
2018-07-15T04:54:13.264Z,19.80
2018-07-15T04:56:41.384Z,19.80
2018-07-15T04:59:09.448Z,19.90
2018-07-15T05:04:12.739Z,20.00
2018-07-15T05:06:40.802Z,20.00
2018-07-15T05:09:08.892Z,20.10
2018-07-15T05:11:37.899Z,20.20
2018-07-15T05:14:06.408Z,20.20
2018-07-15T05:16:34.484Z,20.30
2018-07-15T05:19:02.780Z,20.40
2018-07-15T05:21:30.964Z,20.50
2018-07-15T05:23:59.055Z,20.60
2018-07-15T05:26:27.110Z,20.70
2018-07-15T05:28:55.181Z,20.90
2018-07-15T05:31:23.308Z,21.00
2018-07-15T05:33:51.370Z,21.10
2018-07-15T05:36:19.419Z,21.20
2018-07-15T05:38:47.496Z,21.30
2018-07-15T05:41:15.548Z,21.40
2018-07-15T05:43:43.616Z,21.60
2018-07-15T05:46:11.675Z,21.70
2018-07-15T05:48:39.743Z,21.80
2018-07-15T05:51:08.412Z,21.90
2018-07-15T05:53:36.684Z,22.00
2018-07-15T05:56:04.745Z,22.10
2018-07-15T05:58:32.805Z,22.20
2018-07-15T06:01:00.873Z,22.30
2018-07-15T06:03:28.980Z,22.40
2018-07-15T06:05:56.986Z,22.50
2018-07-15T06:08:25.191Z,22.60
2018-07-15T06:10:53.261Z,22.80
2018-07-15T06:13:21.340Z,23.00
2018-07-15T06:15:49.392Z,23.20
2018-07-15T06:18:17.444Z,23.60
2018-07-15T06:20:45.491Z,24.10
2018-07-15T06:23:13.524Z,24.70
2018-07-15T06:25:41.574Z,25.40
2018-07-15T06:28:09.613Z,26.30
2018-07-15T06:30:37.660Z,27.40
2018-07-15T06:33:05.707Z,28.50
2018-07-15T06:35:33.753Z,29.60
2018-07-15T06:38:01.789Z,30.50
2018-07-15T06:40:29.849Z,31.40
2018-07-15T06:42:57.881Z,32.20
2018-07-15T06:45:25.920Z,33.00
2018-07-15T06:47:54.137Z,33.80
2018-07-15T06:50:22.185Z,34.40
2018-07-15T06:52:50.220Z,35.10
2018-07-15T06:55:18.295Z,35.60
2018-07-15T06:57:46.346Z,36.30
2018-07-15T07:00:14.392Z,36.70
2018-07-15T07:02:42.419Z,37.20
2018-07-15T07:05:10.460Z,37.70
2018-07-15T07:07:38.587Z,38.30
2018-07-15T07:10:06.553Z,38.60
2018-07-15T07:12:34.583Z,38.60
2018-07-15T07:15:02.634Z,38.50
2018-07-15T07:17:30.681Z,38.20
2018-07-15T07:19:58.744Z,37.90
2018-07-15T07:22:26.817Z,37.60
2018-07-15T07:24:54.898Z,37.20
2018-07-15T07:27:22.940Z,36.80
2018-07-15T07:29:50.982Z,36.30
2018-07-15T07:32:19.008Z,35.60
2018-07-15T07:37:14.960Z,34.50
2018-07-15T07:39:43.005Z,34.00
2018-07-15T07:42:11.040Z,33.80
2018-07-15T07:44:39.085Z,33.40
2018-07-15T07:47:07.349Z,33.20
2018-07-15T07:49:35.385Z,33.00
2018-07-15T07:52:03.424Z,32.90
2018-07-15T07:54:31.513Z,32.70
2018-07-15T07:56:59.557Z,32.60
2018-07-15T07:59:27.596Z,32.60
2018-07-15T08:01:55.644Z,32.50
2018-07-15T08:04:23.676Z,32.50
2018-07-15T08:06:51.717Z,32.50
2018-07-15T08:09:19.756Z,32.60
2018-07-15T08:11:47.793Z,32.60
2018-07-15T08:14:15.873Z,32.60
2018-07-15T08:16:43.933Z,32.80
2018-07-15T08:19:11.974Z,32.90
2018-07-15T08:21:40.025Z,33.00
2018-07-15T08:24:08.322Z,33.00
2018-07-15T08:26:36.359Z,33.20
2018-07-15T08:29:04.520Z,33.30
2018-07-15T08:31:32.564Z,33.50
2018-07-15T08:34:00.596Z,33.60
2018-07-15T08:36:28.648Z,33.60
2018-07-15T08:38:56.672Z,33.80
2018-07-15T08:41:24.711Z,34.00
2018-07-15T08:43:52.736Z,34.30
2018-07-15T08:46:20.776Z,34.40
2018-07-15T08:48:48.816Z,34.60
2018-07-15T08:51:16.886Z,34.70
2018-07-15T08:53:44.921Z,35.00
2018-07-15T08:56:12.964Z,35.30
2018-07-15T08:58:41.004Z,35.50
2018-07-15T09:01:09.045Z,35.50
2018-07-15T09:03:37.077Z,35.50
2018-07-15T09:06:05.132Z,35.60
2018-07-15T09:08:33.164Z,35.80
2018-07-15T09:11:01.209Z,35.80
2018-07-15T09:13:29.552Z,35.70
2018-07-15T09:15:57.584Z,35.80
2018-07-15T09:18:25.705Z,35.90
2018-07-15T09:20:53.669Z,36.10
2018-07-15T09:23:21.708Z,36.30
2018-07-15T09:25:49.756Z,36.50
2018-07-15T09:28:17.817Z,36.70
2018-07-15T09:30:45.858Z,36.90
2018-07-15T09:33:13.888Z,37.10
2018-07-15T09:35:41.928Z,37.20
2018-07-15T09:38:10.028Z,37.20
2018-07-15T09:40:38.044Z,37.20
2018-07-15T09:43:06.089Z,37.10
2018-07-15T09:45:34.178Z,37.20
2018-07-15T09:50:30.099Z,37.30
2018-07-15T09:52:58.140Z,37.10
2018-07-15T09:55:26.174Z,36.90
2018-07-15T09:57:54.216Z,36.10
2018-07-15T10:00:27.532Z,35.70
2018-07-15T10:02:55.804Z,35.70
2018-07-15T10:05:24.172Z,35.60
2018-07-15T10:07:52.219Z,35.50
2018-07-15T10:10:20.325Z,35.60
2018-07-15T10:12:48.300Z,35.70
2018-07-15T10:15:16.420Z,35.60
2018-07-15T10:17:44.439Z,35.70
2018-07-15T10:20:12.479Z,35.70
2018-07-15T10:22:40.528Z,35.70
2018-07-15T10:25:08.552Z,35.50
2018-07-15T10:27:36.589Z,35.30
2018-07-15T10:30:04.661Z,35.10
2018-07-15T10:32:32.708Z,35.00
2018-07-15T10:35:00.840Z,35.00
2018-07-15T10:37:28.879Z,34.90
2018-07-15T10:39:56.925Z,35.00
2018-07-15T10:42:25.013Z,35.30
2018-07-15T10:44:53.045Z,35.40
2018-07-15T10:47:21.086Z,35.40
2018-07-15T10:49:49.161Z,35.30
2018-07-15T10:52:17.317Z,35.30
2018-07-15T10:54:45.340Z,35.20
2018-07-15T10:57:13.388Z,35.10
2018-07-15T10:59:41.416Z,35.00
2018-07-15T11:02:09.464Z,34.80
2018-07-15T11:04:37.601Z,34.70
2018-07-15T11:07:05.813Z,34.60
2018-07-15T11:09:33.851Z,34.70
2018-07-15T11:12:01.888Z,34.90
2018-07-15T11:14:29.924Z,35.00
2018-07-15T11:16:57.976Z,35.20
2018-07-15T11:19:26.008Z,35.60
2018-07-15T11:21:54.072Z,36.20
2018-07-15T11:24:22.288Z,36.80
2018-07-15T11:26:50.427Z,37.20
2018-07-15T11:29:18.453Z,37.50
2018-07-15T11:31:46.499Z,37.90
2018-07-15T11:36:42.469Z,38.50
2018-07-15T11:39:10.589Z,38.60
2018-07-15T11:41:38.624Z,38.50
2018-07-15T11:44:06.756Z,38.40
2018-07-15T11:46:34.836Z,38.00
2018-07-15T11:49:02.877Z,37.70
2018-07-15T11:51:30.920Z,37.50
2018-07-15T11:53:58.951Z,37.40
2018-07-15T11:56:26.997Z,37.20
2018-07-15T11:58:55.024Z,37.10
2018-07-15T12:01:23.069Z,36.90
2018-07-15T12:03:51.105Z,36.60
2018-07-15T12:06:19.150Z,36.40
2018-07-15T12:08:47.193Z,36.30
2018-07-15T12:11:15.233Z,36.30
2018-07-15T12:13:43.268Z,36.60
2018-07-15T12:16:11.311Z,36.90
2018-07-15T12:18:39.357Z,37.10
2018-07-15T12:21:07.592Z,37.30
2018-07-15T12:23:35.637Z,37.30
2018-07-15T12:26:03.742Z,37.30
2018-07-15T12:28:31.778Z,37.00
2018-07-15T12:30:59.813Z,36.70
2018-07-15T12:33:27.860Z,36.60
2018-07-15T12:35:55.889Z,36.40
2018-07-15T12:38:23.939Z,36.10
2018-07-15T12:40:51.989Z,36.00
2018-07-15T12:43:20.096Z,36.10
2018-07-15T12:48:15.912Z,36.50
2018-07-15T12:50:43.948Z,36.70
2018-07-15T12:53:11.993Z,36.80
2018-07-15T12:55:40.037Z,37.20
2018-07-15T12:58:08.089Z,37.60
2018-07-15T13:00:36.149Z,37.90
2018-07-15T13:03:04.198Z,38.00
2018-07-15T13:05:32.305Z,38.00
2018-07-15T13:08:00.374Z,37.70
2018-07-15T13:10:28.417Z,37.70
2018-07-15T13:12:56.456Z,37.60
2018-07-15T13:15:24.555Z,37.50
2018-07-15T13:17:52.601Z,37.40
2018-07-15T13:20:20.664Z,37.70
2018-07-15T13:22:48.732Z,38.20
2018-07-15T13:25:16.792Z,38.70
2018-07-15T13:27:44.860Z,39.00
2018-07-15T13:30:13.348Z,38.90
2018-07-15T13:32:41.424Z,39.00
2018-07-15T13:35:09.479Z,38.90
2018-07-15T13:37:37.544Z,38.60
2018-07-15T13:40:05.668Z,38.50
2018-07-15T13:42:33.743Z,38.60
2018-07-15T13:45:01.884Z,38.80
2018-07-15T13:47:29.965Z,39.00
2018-07-15T13:49:58.116Z,38.90
2018-07-15T13:52:26.179Z,38.70
2018-07-15T13:54:54.227Z,38.40
2018-07-15T13:57:22.284Z,38.00
2018-07-15T13:59:50.356Z,37.60
2018-07-15T14:02:18.827Z,37.10
2018-07-15T14:04:46.910Z,36.70
2018-07-15T14:07:14.963Z,36.50
2018-07-15T14:09:43.028Z,35.90
2018-07-15T14:12:11.092Z,35.30
2018-07-15T14:14:39.160Z,34.80
2018-07-15T14:17:07.236Z,34.20
2018-07-15T14:19:35.276Z,33.70
2018-07-15T14:22:03.323Z,33.40
2018-07-15T14:26:59.236Z,32.70
2018-07-15T14:29:27.280Z,32.50
2018-07-15T14:31:55.343Z,32.30
2018-07-15T14:34:23.392Z,32.00
2018-07-15T14:36:51.432Z,31.30
2018-07-15T14:39:19.480Z,30.30
2018-07-15T14:41:47.533Z,29.20
2018-07-15T14:44:15.599Z,28.40
2018-07-15T14:46:43.697Z,27.60
2018-07-15T14:49:11.688Z,26.80
2018-07-15T14:51:39.724Z,26.10
2018-07-15T14:54:07.771Z,25.60
2018-07-15T14:56:35.812Z,25.10
2018-07-15T14:59:03.860Z,24.60
2018-07-15T15:01:31.900Z,24.20
2018-07-15T15:03:59.940Z,24.00
2018-07-15T15:08:55.820Z,23.70
2018-07-15T15:11:23.859Z,23.50
2018-07-15T15:13:51.916Z,23.50
2018-07-15T15:16:19.974Z,23.40
2018-07-15T15:18:48.021Z,23.40
2018-07-15T15:21:16.056Z,23.40
2018-07-15T15:23:44.104Z,23.50
2018-07-15T15:26:12.154Z,23.60
2018-07-15T15:28:40.196Z,23.60
2018-07-15T15:31:08.353Z,23.60
2018-07-15T15:33:36.456Z,23.60
2018-07-15T15:36:04.442Z,23.70
2018-07-15T15:41:00.320Z,24.00
2018-07-15T15:43:28.400Z,24.10
2018-07-15T15:45:56.461Z,24.10
2018-07-15T15:48:24.504Z,24.20
2018-07-15T15:50:52.545Z,24.20
2018-07-15T15:53:20.580Z,24.20
2018-07-15T15:55:48.629Z,24.30
2018-07-15T15:58:16.775Z,24.30
2018-07-15T16:00:44.729Z,24.30
2018-07-15T16:03:12.760Z,24.20
2018-07-15T16:05:40.819Z,24.20
2018-07-15T16:08:08.855Z,24.20
2018-07-15T16:10:36.996Z,24.20
2018-07-15T16:13:05.280Z,24.30
2018-07-15T16:15:33.356Z,24.30
2018-07-15T16:18:01.429Z,24.40
2018-07-15T16:20:29.496Z,24.50
2018-07-15T16:22:57.556Z,24.50
2018-07-15T16:25:25.628Z,24.50
2018-07-15T16:27:53.715Z,24.40
2018-07-15T16:30:21.808Z,24.40
2018-07-15T16:32:49.897Z,24.40
2018-07-15T16:35:17.971Z,24.40
2018-07-15T16:37:46.026Z,24.40
2018-07-15T16:40:14.109Z,24.30
2018-07-15T16:42:42.153Z,24.30
2018-07-15T16:45:10.217Z,24.10
2018-07-15T16:47:38.269Z,23.90
2018-07-15T16:50:06.649Z,23.80
2018-07-15T16:52:34.709Z,23.70
2018-07-15T16:55:02.788Z,23.60
2018-07-15T16:57:30.845Z,23.50
2018-07-15T16:59:58.952Z,23.30
2018-07-15T17:02:27.004Z,23.20
2018-07-15T17:04:55.068Z,23.10
2018-07-15T17:07:23.124Z,23.10
2018-07-15T17:09:51.189Z,23.10
2018-07-15T17:12:19.241Z,23.00
2018-07-15T17:14:47.308Z,23.10
2018-07-15T17:17:15.373Z,23.20
2018-07-15T17:19:43.444Z,23.20
2018-07-15T17:22:11.496Z,23.30
2018-07-15T17:24:39.557Z,23.30
2018-07-15T17:27:07.645Z,23.30
2018-07-15T17:29:35.708Z,23.40
2018-07-15T17:32:03.784Z,23.50
2018-07-15T17:34:31.852Z,23.40
2018-07-15T17:36:59.957Z,23.40
2018-07-15T17:39:28.009Z,23.20
2018-07-15T17:41:56.065Z,23.20
2018-07-15T17:44:24.136Z,23.30
2018-07-15T17:46:52.197Z,23.20
2018-07-15T17:49:20.260Z,23.00
2018-07-15T17:51:48.320Z,23.00
2018-07-15T17:54:16.399Z,22.90
2018-07-15T17:56:44.526Z,22.70
2018-07-15T17:59:12.536Z,22.70
2018-07-15T18:01:40.756Z,22.50
2018-07-15T18:04:08.808Z,22.40
2018-07-15T18:09:05.672Z,22.20
2018-07-15T18:11:33.736Z,22.20
2018-07-15T18:14:01.789Z,22.00
2018-07-15T18:16:29.867Z,21.90
2018-07-15T18:18:57.902Z,21.90
2018-07-15T18:21:25.939Z,21.80
2018-07-15T18:23:53.977Z,21.90
2018-07-15T18:26:22.033Z,21.80
2018-07-15T18:28:50.071Z,21.70
2018-07-15T18:31:18.125Z,21.60
2018-07-15T18:33:46.185Z,21.60
2018-07-15T18:36:14.252Z,21.60
2018-07-15T18:38:42.301Z,21.60
2018-07-15T18:41:10.357Z,21.60
2018-07-15T18:43:38.401Z,21.60
2018-07-15T18:46:06.436Z,21.60
2018-07-15T18:48:34.465Z,21.50
2018-07-15T18:51:02.509Z,21.60
2018-07-15T18:53:30.575Z,21.60
2018-07-15T18:55:58.613Z,21.70
2018-07-15T18:58:26.660Z,21.80
2018-07-15T19:00:54.704Z,21.80
2018-07-15T19:03:22.757Z,21.90
2018-07-15T19:05:50.846Z,21.90
2018-07-15T19:08:19.021Z,21.90
2018-07-15T19:10:47.063Z,21.90
2018-07-15T19:13:15.100Z,21.90
2018-07-15T19:15:43.143Z,21.90
2018-07-15T19:18:11.240Z,21.90
2018-07-15T19:20:39.224Z,21.80
2018-07-15T19:23:07.264Z,21.80
2018-07-15T19:25:35.305Z,21.80
2018-07-15T19:28:03.808Z,21.80
2018-07-15T19:30:31.848Z,21.80
2018-07-15T19:32:59.908Z,21.80
2018-07-15T19:35:27.948Z,21.70
2018-07-15T19:37:56.164Z,21.70
2018-07-15T19:40:24.564Z,21.70
2018-07-15T19:42:52.976Z,21.60
2018-07-15T19:45:21.024Z,21.50
2018-07-15T19:47:49.065Z,21.50
2018-07-15T19:50:17.111Z,21.40
2018-07-15T19:52:45.152Z,21.40
2018-07-15T19:55:13.194Z,21.40
2018-07-15T19:57:41.231Z,21.40
2018-07-15T20:00:09.276Z,21.40
2018-07-15T20:02:37.320Z,21.40
2018-07-15T20:05:05.417Z,21.30
2018-07-15T20:07:34.436Z,21.30
2018-07-15T20:10:02.477Z,21.30
2018-07-15T20:12:30.516Z,21.30
2018-07-15T20:14:58.548Z,21.30
2018-07-15T20:17:26.596Z,21.30
2018-07-15T20:19:54.653Z,21.30
2018-07-15T20:22:22.689Z,21.30
2018-07-15T20:24:50.749Z,21.30
2018-07-15T20:27:18.816Z,21.20
2018-07-15T20:29:46.857Z,21.20
2018-07-15T20:32:14.999Z,21.20
2018-07-15T20:34:43.076Z,21.10
2018-07-15T20:37:11.129Z,21.10
2018-07-15T20:39:39.183Z,21.10
2018-07-15T20:42:07.253Z,21.10
2018-07-15T20:44:35.313Z,21.00
2018-07-15T20:47:03.373Z,21.00
2018-07-15T20:49:31.409Z,21.00
2018-07-15T20:52:00.261Z,21.00
2018-07-15T20:54:28.297Z,21.00
2018-07-15T20:56:56.340Z,20.90
2018-07-15T20:59:24.376Z,21.00
2018-07-15T21:01:52.423Z,21.00
2018-07-15T21:04:20.467Z,21.00
2018-07-15T21:06:48.608Z,21.00
2018-07-15T21:09:16.640Z,21.00
2018-07-15T21:11:44.758Z,20.90
2018-07-15T21:14:12.824Z,20.90
2018-07-15T21:16:40.879Z,20.90
2018-07-15T21:19:08.958Z,20.90
2018-07-15T21:21:36.956Z,20.90
2018-07-15T21:24:05.077Z,21.00
2018-07-15T21:26:33.125Z,21.00
2018-07-15T21:29:01.167Z,21.00
2018-07-15T21:31:29.297Z,21.00
2018-07-15T21:33:57.285Z,21.00
2018-07-15T21:36:25.470Z,21.00
2018-07-15T21:38:53.504Z,20.90
2018-07-15T21:43:49.779Z,20.70
2018-07-15T21:48:45.740Z,20.70
2018-07-15T21:51:13.858Z,20.70
2018-07-15T21:53:41.837Z,20.70
2018-07-15T21:56:10.030Z,20.70
2018-07-15T21:58:38.048Z,20.70
2018-07-15T22:01:06.092Z,20.70
2018-07-15T22:03:34.130Z,20.70
2018-07-15T22:06:02.176Z,20.70
2018-07-15T22:09:40.752Z,20.60
2018-07-15T22:12:08.793Z,20.60
2018-07-15T22:14:36.838Z,20.50
2018-07-15T22:17:04.893Z,20.50
2018-07-15T22:19:32.937Z,20.40
2018-07-15T22:22:00.984Z,20.40
2018-07-15T22:24:29.019Z,20.40
2018-07-15T22:26:57.070Z,20.40
2018-07-15T22:29:25.103Z,20.30
2018-07-15T22:31:53.145Z,20.30
2018-07-15T22:34:21.200Z,20.30
2018-07-15T22:36:49.243Z,20.30
2018-07-15T22:39:17.285Z,20.30
2018-07-15T22:41:45.328Z,20.40
2018-07-15T22:44:13.480Z,20.40
2018-07-15T22:46:41.505Z,20.40
2018-07-15T22:49:09.548Z,20.40
2018-07-15T22:51:37.601Z,20.40
2018-07-15T22:54:05.657Z,20.40
2018-07-15T22:56:33.700Z,20.30
2018-07-15T22:59:01.740Z,20.30
2018-07-15T23:01:29.780Z,20.30
2018-07-15T23:03:57.850Z,20.10
2018-07-15T23:06:25.885Z,20.00
2018-07-15T23:08:54.441Z,19.90
2018-07-15T23:11:22.484Z,19.90
2018-07-15T23:13:50.556Z,19.90
2018-07-15T23:16:18.813Z,19.90
2018-07-15T23:18:46.912Z,19.90
2018-07-15T23:21:14.979Z,19.90
2018-07-15T23:23:43.041Z,19.90
2018-07-15T23:26:11.093Z,19.90
2018-07-15T23:28:39.164Z,19.90
2018-07-15T23:31:07.216Z,19.90
2018-07-15T23:33:35.297Z,20.00
2018-07-15T23:36:03.356Z,19.90
2018-07-15T23:38:31.415Z,19.90
2018-07-15T23:40:59.485Z,19.90
2018-07-15T23:43:27.540Z,19.90
2018-07-15T23:45:55.600Z,19.80
2018-07-15T23:48:23.656Z,19.80
2018-07-15T23:50:51.716Z,19.70
2018-07-15T23:53:19.785Z,19.70
2018-07-15T23:55:47.833Z,19.70
2018-07-15T23:58:15.908Z,19.70
